sensor_id;sensor_type;location;lat;lon;timestamp;temperature;humidity
37528;DHT22;23372;52.050;4.810;2023-11-18T00:00:10;5.60;99.90
37528;DHT22;23372;52.050;4.810;2023-11-18T00:02:38;5.70;99.90
37528;DHT22;23372;52.050;4.810;2023-11-18T00:05:04;5.70;99.90
37528;DHT22;23372;52.050;4.810;2023-11-18T00:07:32;5.70;99.90
37528;DHT22;23372;52.050;4.810;2023-11-18T00:09:58;5.60;99.90
37528;DHT22;23372;52.050;4.810;2023-11-18T00:12:23;5.70;99.90
37528;DHT22;23372;52.050;4.810;2023-11-18T00:14:51;5.60;99.90
37528;DHT22;23372;52.050;4.810;2023-11-18T00:17:17;5.70;99.90
37528;DHT22;23372;52.050;4.810;2023-11-18T00:19:43;5.60;99.90
37528;DHT22;23372;52.050;4.810;2023-11-18T00:22:09;5.60;99.90
37528;DHT22;23372;52.050;4.810;2023-11-18T00:24:36;5.50;99.90
37528;DHT22;23372;52.050;4.810;2023-11-18T00:27:02;5.40;99.90
37528;DHT22;23372;52.050;4.810;2023-11-18T00:29:34;5.40;99.90
37528;DHT22;23372;52.050;4.810;2023-11-18T00:32:00;5.30;99.90
37528;DHT22;23372;52.050;4.810;2023-11-18T00:34:26;5.20;99.90
37528;DHT22;23372;52.050;4.810;2023-11-18T00:36:52;5.10;99.90
37528;DHT22;23372;52.050;4.810;2023-11-18T00:39:17;5.00;99.90
37528;DHT22;23372;52.050;4.810;2023-11-18T00:41:43;5.10;99.90
37528;DHT22;23372;52.050;4.810;2023-11-18T00:44:09;5.00;99.90
37528;DHT22;23372;52.050;4.810;2023-11-18T00:46:35;5.00;99.90
37528;DHT22;23372;52.050;4.810;2023-11-18T00:49:03;5.00;99.90
37528;DHT22;23372;52.050;4.810;2023-11-18T00:51:30;5.00;99.90
37528;DHT22;23372;52.050;4.810;2023-11-18T00:53:56;5.10;99.90
37528;DHT22;23372;52.050;4.810;2023-11-18T00:56:21;5.10;99.90
37528;DHT22;23372;52.050;4.810;2023-11-18T00:58:48;5.10;99.90
37528;DHT22;23372;52.050;4.810;2023-11-18T01:01:13;5.20;99.90
37528;DHT22;23372;52.050;4.810;2023-11-18T01:03:46;5.10;99.90
37528;DHT22;23372;52.050;4.810;2023-11-18T01:06:12;5.10;99.90
37528;DHT22;23372;52.050;4.810;2023-11-18T01:08:38;5.20;99.90
37528;DHT22;23372;52.050;4.810;2023-11-18T01:11:04;5.20;99.90
37528;DHT22;23372;52.050;4.810;2023-11-18T01:13:30;5.10;99.90
37528;DHT22;23372;52.050;4.810;2023-11-18T01:15:56;5.20;99.90
37528;DHT22;23372;52.050;4.810;2023-11-18T01:18:22;5.20;99.90
37528;DHT22;23372;52.050;4.810;2023-11-18T01:20:48;5.20;99.90
37528;DHT22;23372;52.050;4.810;2023-11-18T01:23:14;5.30;99.90
37528;DHT22;23372;52.050;4.810;2023-11-18T01:25:39;5.30;99.90
37528;DHT22;23372;52.050;4.810;2023-11-18T01:28:06;5.30;99.90
37528;DHT22;23372;52.050;4.810;2023-11-18T01:30:31;5.20;99.90
37528;DHT22;23372;52.050;4.810;2023-11-18T01:32:58;5.30;99.90
37528;DHT22;23372;52.050;4.810;2023-11-18T01:35:26;5.30;99.90
37528;DHT22;23372;52.050;4.810;2023-11-18T01:37:52;5.30;99.90
37528;DHT22;23372;52.050;4.810;2023-11-18T01:40:18;5.30;99.90
37528;DHT22;23372;52.050;4.810;2023-11-18T01:42:45;5.30;99.90
37528;DHT22;23372;52.050;4.810;2023-11-18T01:45:12;5.40;99.90
37528;DHT22;23372;52.050;4.810;2023-11-18T01:47:39;5.40;99.90
37528;DHT22;23372;52.050;4.810;2023-11-18T01:50:06;5.40;99.90
37528;DHT22;23372;52.050;4.810;2023-11-18T01:52:34;5.40;99.90
37528;DHT22;23372;52.050;4.810;2023-11-18T01:55:00;5.40;99.90
37528;DHT22;23372;52.050;4.810;2023-11-18T01:57:25;5.40;99.90
37528;DHT22;23372;52.050;4.810;2023-11-18T01:59:53;5.40;99.90
37528;DHT22;23372;52.050;4.810;2023-11-18T02:02:19;5.40;99.90
37528;DHT22;23372;52.050;4.810;2023-11-18T02:04:46;5.40;99.90
37528;DHT22;23372;52.050;4.810;2023-11-18T02:07:13;5.50;99.90
37528;DHT22;23372;52.050;4.810;2023-11-18T02:09:41;5.50;99.90
37528;DHT22;23372;52.050;4.810;2023-11-18T02:12:29;5.50;99.90
37528;DHT22;23372;52.050;4.810;2023-11-18T02:14:57;5.50;99.90
37528;DHT22;23372;52.050;4.810;2023-11-18T02:17:25;5.60;99.90
37528;DHT22;23372;52.050;4.810;2023-11-18T02:19:53;5.60;99.90
37528;DHT22;23372;52.050;4.810;2023-11-18T02:22:21;5.60;99.90
37528;DHT22;23372;52.050;4.810;2023-11-18T02:24:47;5.60;99.90
37528;DHT22;23372;52.050;4.810;2023-11-18T02:27:13;5.60;99.90
37528;DHT22;23372;52.050;4.810;2023-11-18T02:29:43;5.60;99.90
37528;DHT22;23372;52.050;4.810;2023-11-18T02:32:29;5.60;99.90
37528;DHT22;23372;52.050;4.810;2023-11-18T02:35:32;5.60;99.90
37528;DHT22;23372;52.050;4.810;2023-11-18T02:38:00;5.60;99.90
37528;DHT22;23372;52.050;4.810;2023-11-18T02:40:37;5.60;99.90
37528;DHT22;23372;52.050;4.810;2023-11-18T02:43:04;5.60;99.90
37528;DHT22;23372;52.050;4.810;2023-11-18T02:45:31;5.50;99.90
37528;DHT22;23372;52.050;4.810;2023-11-18T02:47:58;5.60;99.90
37528;DHT22;23372;52.050;4.810;2023-11-18T02:50:24;5.60;99.90
37528;DHT22;23372;52.050;4.810;2023-11-18T02:52:50;5.60;99.90
37528;DHT22;23372;52.050;4.810;2023-11-18T02:55:16;5.70;99.90
37528;DHT22;23372;52.050;4.810;2023-11-18T02:57:41;5.70;99.90
37528;DHT22;23372;52.050;4.810;2023-11-18T03:00:08;5.70;99.90
37528;DHT22;23372;52.050;4.810;2023-11-18T03:02:47;5.80;99.90
37528;DHT22;23372;52.050;4.810;2023-11-18T03:05:14;5.80;99.90
37528;DHT22;23372;52.050;4.810;2023-11-18T03:07:44;5.90;99.90
37528;DHT22;23372;52.050;4.810;2023-11-18T03:10:16;5.90;99.90
37528;DHT22;23372;52.050;4.810;2023-11-18T03:12:53;5.90;99.90
37528;DHT22;23372;52.050;4.810;2023-11-18T03:15:20;5.90;99.90
37528;DHT22;23372;52.050;4.810;2023-11-18T03:17:47;5.80;99.90
37528;DHT22;23372;52.050;4.810;2023-11-18T03:20:18;5.80;99.90
37528;DHT22;23372;52.050;4.810;2023-11-18T03:22:44;5.90;99.90
37528;DHT22;23372;52.050;4.810;2023-11-18T03:25:11;5.90;99.90
37528;DHT22;23372;52.050;4.810;2023-11-18T03:27:37;5.90;99.90
37528;DHT22;23372;52.050;4.810;2023-11-18T03:30:03;5.90;99.90
37528;DHT22;23372;52.050;4.810;2023-11-18T03:32:28;5.90;99.90
37528;DHT22;23372;52.050;4.810;2023-11-18T03:34:54;6.00;99.90
37528;DHT22;23372;52.050;4.810;2023-11-18T03:37:19;5.90;99.90
37528;DHT22;23372;52.050;4.810;2023-11-18T03:39:48;5.90;99.90
37528;DHT22;23372;52.050;4.810;2023-11-18T03:42:14;5.80;99.90
37528;DHT22;23372;52.050;4.810;2023-11-18T03:44:41;6.00;99.90
37528;DHT22;23372;52.050;4.810;2023-11-18T03:47:06;5.90;99.90
37528;DHT22;23372;52.050;4.810;2023-11-18T03:49:32;5.90;99.90
37528;DHT22;23372;52.050;4.810;2023-11-18T03:51:58;5.90;99.90
37528;DHT22;23372;52.050;4.810;2023-11-18T03:54:23;5.90;99.90
37528;DHT22;23372;52.050;4.810;2023-11-18T03:56:50;5.90;99.90
37528;DHT22;23372;52.050;4.810;2023-11-18T03:59:15;5.90;99.90
37528;DHT22;23372;52.050;4.810;2023-11-18T04:01:41;5.90;99.90
37528;DHT22;23372;52.050;4.810;2023-11-18T04:04:06;5.90;99.90
37528;DHT22;23372;52.050;4.810;2023-11-18T04:06:32;5.90;99.90
37528;DHT22;23372;52.050;4.810;2023-11-18T04:08:58;5.90;99.90
37528;DHT22;23372;52.050;4.810;2023-11-18T04:11:24;5.90;99.90
37528;DHT22;23372;52.050;4.810;2023-11-18T04:13:49;5.90;99.90
37528;DHT22;23372;52.050;4.810;2023-11-18T04:16:15;5.90;99.90
37528;DHT22;23372;52.050;4.810;2023-11-18T04:18:42;5.90;99.90
37528;DHT22;23372;52.050;4.810;2023-11-18T04:21:09;6.00;99.90
37528;DHT22;23372;52.050;4.810;2023-11-18T04:23:37;6.00;99.90
37528;DHT22;23372;52.050;4.810;2023-11-18T04:26:03;6.00;99.90
37528;DHT22;23372;52.050;4.810;2023-11-18T04:28:29;6.10;99.90
37528;DHT22;23372;52.050;4.810;2023-11-18T04:30:55;6.10;99.90
37528;DHT22;23372;52.050;4.810;2023-11-18T04:33:21;6.10;99.90
37528;DHT22;23372;52.050;4.810;2023-11-18T04:35:46;6.10;99.90
37528;DHT22;23372;52.050;4.810;2023-11-18T04:38:12;6.00;99.90
37528;DHT22;23372;52.050;4.810;2023-11-18T04:40:38;6.00;99.90
37528;DHT22;23372;52.050;4.810;2023-11-18T04:43:05;6.00;99.90
37528;DHT22;23372;52.050;4.810;2023-11-18T04:45:30;6.00;99.90
37528;DHT22;23372;52.050;4.810;2023-11-18T04:47:56;6.10;99.90
37528;DHT22;23372;52.050;4.810;2023-11-18T04:50:22;6.10;99.90
37528;DHT22;23372;52.050;4.810;2023-11-18T04:52:47;6.20;99.90
37528;DHT22;23372;52.050;4.810;2023-11-18T04:55:13;6.10;99.90
37528;DHT22;23372;52.050;4.810;2023-11-18T04:57:39;6.10;99.90
37528;DHT22;23372;52.050;4.810;2023-11-18T05:00:05;6.10;99.90
37528;DHT22;23372;52.050;4.810;2023-11-18T05:02:37;6.20;99.90
37528;DHT22;23372;52.050;4.810;2023-11-18T05:05:03;6.10;99.90
37528;DHT22;23372;52.050;4.810;2023-11-18T05:07:30;6.20;99.90
37528;DHT22;23372;52.050;4.810;2023-11-18T05:09:56;6.20;99.90
37528;DHT22;23372;52.050;4.810;2023-11-18T05:12:21;6.20;99.90
37528;DHT22;23372;52.050;4.810;2023-11-18T05:14:47;6.20;99.90
37528;DHT22;23372;52.050;4.810;2023-11-18T05:17:15;6.20;99.90
37528;DHT22;23372;52.050;4.810;2023-11-18T05:19:41;6.20;99.90
37528;DHT22;23372;52.050;4.810;2023-11-18T05:22:08;6.20;99.90
37528;DHT22;23372;52.050;4.810;2023-11-18T05:24:33;6.20;99.90
37528;DHT22;23372;52.050;4.810;2023-11-18T05:26:59;6.20;99.90
37528;DHT22;23372;52.050;4.810;2023-11-18T05:29:27;6.20;99.90
37528;DHT22;23372;52.050;4.810;2023-11-18T05:31:53;6.20;99.90
37528;DHT22;23372;52.050;4.810;2023-11-18T05:34:20;6.20;99.90
37528;DHT22;23372;52.050;4.810;2023-11-18T05:36:46;6.20;99.90
37528;DHT22;23372;52.050;4.810;2023-11-18T05:39:12;6.20;99.90
37528;DHT22;23372;52.050;4.810;2023-11-18T05:41:40;6.20;99.90
37528;DHT22;23372;52.050;4.810;2023-11-18T05:44:06;6.20;99.90
37528;DHT22;23372;52.050;4.810;2023-11-18T05:46:34;6.20;99.90
37528;DHT22;23372;52.050;4.810;2023-11-18T05:49:03;6.20;99.90
37528;DHT22;23372;52.050;4.810;2023-11-18T05:51:33;6.20;99.90
37528;DHT22;23372;52.050;4.810;2023-11-18T05:53:58;6.20;99.90
37528;DHT22;23372;52.050;4.810;2023-11-18T05:56:25;6.30;99.90
37528;DHT22;23372;52.050;4.810;2023-11-18T05:58:52;6.30;99.90
37528;DHT22;23372;52.050;4.810;2023-11-18T06:01:20;6.20;99.90
37528;DHT22;23372;52.050;4.810;2023-11-18T06:03:46;6.20;99.90
37528;DHT22;23372;52.050;4.810;2023-11-18T06:06:13;6.30;99.90
37528;DHT22;23372;52.050;4.810;2023-11-18T06:08:39;6.30;99.90
37528;DHT22;23372;52.050;4.810;2023-11-18T06:11:07;6.30;99.90
37528;DHT22;23372;52.050;4.810;2023-11-18T06:13:49;6.20;99.90
37528;DHT22;23372;52.050;4.810;2023-11-18T06:16:19;6.30;99.90
37528;DHT22;23372;52.050;4.810;2023-11-18T06:18:53;6.30;99.90
37528;DHT22;23372;52.050;4.810;2023-11-18T06:21:20;6.30;99.90
37528;DHT22;23372;52.050;4.810;2023-11-18T06:23:49;6.30;99.90
37528;DHT22;23372;52.050;4.810;2023-11-18T06:26:16;6.30;99.90
37528;DHT22;23372;52.050;4.810;2023-11-18T06:28:43;6.30;99.90
37528;DHT22;23372;52.050;4.810;2023-11-18T06:31:09;6.30;99.90
37528;DHT22;23372;52.050;4.810;2023-11-18T06:33:42;6.30;99.90
37528;DHT22;23372;52.050;4.810;2023-11-18T06:36:17;6.30;99.90
37528;DHT22;23372;52.050;4.810;2023-11-18T06:38:43;6.30;99.90
37528;DHT22;23372;52.050;4.810;2023-11-18T06:41:12;6.30;99.90
37528;DHT22;23372;52.050;4.810;2023-11-18T06:43:41;6.30;99.90
37528;DHT22;23372;52.050;4.810;2023-11-18T06:46:19;6.30;99.90
37528;DHT22;23372;52.050;4.810;2023-11-18T06:48:49;6.30;99.90
37528;DHT22;23372;52.050;4.810;2023-11-18T06:51:15;6.40;99.90
37528;DHT22;23372;52.050;4.810;2023-11-18T06:53:41;6.30;99.90
37528;DHT22;23372;52.050;4.810;2023-11-18T06:56:07;6.30;99.90
37528;DHT22;23372;52.050;4.810;2023-11-18T06:58:33;6.30;99.90
37528;DHT22;23372;52.050;4.810;2023-11-18T07:00:59;6.30;99.90
37528;DHT22;23372;52.050;4.810;2023-11-18T07:03:24;6.30;99.90
37528;DHT22;23372;52.050;4.810;2023-11-18T07:05:51;6.30;99.90
37528;DHT22;23372;52.050;4.810;2023-11-18T07:08:16;6.40;99.90
37528;DHT22;23372;52.050;4.810;2023-11-18T07:10:42;6.40;99.90
37528;DHT22;23372;52.050;4.810;2023-11-18T07:13:07;6.40;99.90
37528;DHT22;23372;52.050;4.810;2023-11-18T07:15:34;6.30;99.90
37528;DHT22;23372;52.050;4.810;2023-11-18T07:18:01;6.40;99.90
37528;DHT22;23372;52.050;4.810;2023-11-18T07:20:27;6.40;99.90
37528;DHT22;23372;52.050;4.810;2023-11-18T07:22:52;6.40;99.90
37528;DHT22;23372;52.050;4.810;2023-11-18T07:25:18;6.40;99.90
37528;DHT22;23372;52.050;4.810;2023-11-18T07:27:44;6.40;99.90
37528;DHT22;23372;52.050;4.810;2023-11-18T07:30:10;6.40;99.90
37528;DHT22;23372;52.050;4.810;2023-11-18T07:32:36;6.40;99.90
37528;DHT22;23372;52.050;4.810;2023-11-18T07:35:02;6.40;99.90
37528;DHT22;23372;52.050;4.810;2023-11-18T07:37:28;6.50;99.90
37528;DHT22;23372;52.050;4.810;2023-11-18T07:39:58;6.40;99.90
37528;DHT22;23372;52.050;4.810;2023-11-18T07:42:26;6.50;99.90
37528;DHT22;23372;52.050;4.810;2023-11-18T07:44:51;6.50;99.90
37528;DHT22;23372;52.050;4.810;2023-11-18T07:47:17;6.40;99.90
37528;DHT22;23372;52.050;4.810;2023-11-18T07:49:45;6.50;99.90
37528;DHT22;23372;52.050;4.810;2023-11-18T07:52:11;6.50;99.90
37528;DHT22;23372;52.050;4.810;2023-11-18T07:54:36;6.40;99.90
37528;DHT22;23372;52.050;4.810;2023-11-18T07:57:03;6.50;99.90
37528;DHT22;23372;52.050;4.810;2023-11-18T07:59:30;6.50;99.90
37528;DHT22;23372;52.050;4.810;2023-11-18T08:01:57;6.50;99.90
37528;DHT22;23372;52.050;4.810;2023-11-18T08:04:23;6.50;99.90
37528;DHT22;23372;52.050;4.810;2023-11-18T08:06:49;6.60;99.90
37528;DHT22;23372;52.050;4.810;2023-11-18T08:09:15;6.50;99.90
37528;DHT22;23372;52.050;4.810;2023-11-18T08:11:47;6.50;99.90
37528;DHT22;23372;52.050;4.810;2023-11-18T08:14:14;6.50;99.90
37528;DHT22;23372;52.050;4.810;2023-11-18T08:16:40;6.60;99.90
37528;DHT22;23372;52.050;4.810;2023-11-18T08:19:05;6.60;99.90
37528;DHT22;23372;52.050;4.810;2023-11-18T08:21:34;6.60;99.90
37528;DHT22;23372;52.050;4.810;2023-11-18T08:23:59;6.60;99.90
37528;DHT22;23372;52.050;4.810;2023-11-18T08:26:25;6.60;99.90
37528;DHT22;23372;52.050;4.810;2023-11-18T08:28:51;6.60;99.90
37528;DHT22;23372;52.050;4.810;2023-11-18T08:31:17;6.60;99.90
37528;DHT22;23372;52.050;4.810;2023-11-18T08:33:43;6.70;99.90
37528;DHT22;23372;52.050;4.810;2023-11-18T08:36:09;6.70;99.90
37528;DHT22;23372;52.050;4.810;2023-11-18T08:38:34;6.70;99.90
37528;DHT22;23372;52.050;4.810;2023-11-18T08:41:01;6.70;99.90
37528;DHT22;23372;52.050;4.810;2023-11-18T08:43:26;6.70;99.90
37528;DHT22;23372;52.050;4.810;2023-11-18T08:45:54;6.80;99.90
37528;DHT22;23372;52.050;4.810;2023-11-18T08:48:21;6.70;99.90
37528;DHT22;23372;52.050;4.810;2023-11-18T08:50:48;6.70;99.90
37528;DHT22;23372;52.050;4.810;2023-11-18T08:53:14;6.80;99.90
37528;DHT22;23372;52.050;4.810;2023-11-18T08:55:44;6.80;99.90
37528;DHT22;23372;52.050;4.810;2023-11-18T08:58:22;6.70;99.90
37528;DHT22;23372;52.050;4.810;2023-11-18T09:00:52;6.70;99.90
37528;DHT22;23372;52.050;4.810;2023-11-18T09:03:27;6.70;99.90
37528;DHT22;23372;52.050;4.810;2023-11-18T09:05:57;6.80;99.90
37528;DHT22;23372;52.050;4.810;2023-11-18T09:08:34;6.70;99.90
37528;DHT22;23372;52.050;4.810;2023-11-18T09:11:08;6.80;99.90
37528;DHT22;23372;52.050;4.810;2023-11-18T09:13:37;6.80;99.90
37528;DHT22;23372;52.050;4.810;2023-11-18T09:16:05;6.80;99.90
37528;DHT22;23372;52.050;4.810;2023-11-18T09:18:35;6.80;99.90
37528;DHT22;23372;52.050;4.810;2023-11-18T09:21:02;6.80;99.90
37528;DHT22;23372;52.050;4.810;2023-11-18T09:23:29;6.80;99.90
37528;DHT22;23372;52.050;4.810;2023-11-18T09:25:57;6.80;99.90
37528;DHT22;23372;52.050;4.810;2023-11-18T09:28:24;6.80;99.90
37528;DHT22;23372;52.050;4.810;2023-11-18T09:30:50;6.80;99.90
37528;DHT22;23372;52.050;4.810;2023-11-18T09:33:20;6.90;99.90
37528;DHT22;23372;52.050;4.810;2023-11-18T09:35:57;7.00;99.90
37528;DHT22;23372;52.050;4.810;2023-11-18T09:38:30;7.00;99.90
37528;DHT22;23372;52.050;4.810;2023-11-18T09:40:57;7.10;99.90
37528;DHT22;23372;52.050;4.810;2023-11-18T09:43:24;7.10;99.90
37528;DHT22;23372;52.050;4.810;2023-11-18T09:45:55;7.20;99.90
37528;DHT22;23372;52.050;4.810;2023-11-18T09:48:21;7.20;99.90
37528;DHT22;23372;52.050;4.810;2023-11-18T09:50:52;7.10;99.90
37528;DHT22;23372;52.050;4.810;2023-11-18T09:53:19;7.20;99.90
37528;DHT22;23372;52.050;4.810;2023-11-18T09:55:56;7.20;99.90
37528;DHT22;23372;52.050;4.810;2023-11-18T09:58:35;7.30;99.90
37528;DHT22;23372;52.050;4.810;2023-11-18T10:01:06;7.30;99.90
37528;DHT22;23372;52.050;4.810;2023-11-18T10:03:32;7.30;99.90
37528;DHT22;23372;52.050;4.810;2023-11-18T10:06:03;7.40;99.90
37528;DHT22;23372;52.050;4.810;2023-11-18T10:08:31;7.40;99.90
37528;DHT22;23372;52.050;4.810;2023-11-18T10:10:57;7.40;99.90
37528;DHT22;23372;52.050;4.810;2023-11-18T10:13:34;7.50;99.90
37528;DHT22;23372;52.050;4.810;2023-11-18T10:16:01;7.50;99.90
37528;DHT22;23372;52.050;4.810;2023-11-18T10:18:27;7.50;99.90
37528;DHT22;23372;52.050;4.810;2023-11-18T10:20:54;7.50;99.90
37528;DHT22;23372;52.050;4.810;2023-11-18T10:23:21;7.50;99.90
37528;DHT22;23372;52.050;4.810;2023-11-18T10:25:51;7.50;99.90
37528;DHT22;23372;52.050;4.810;2023-11-18T10:30:57;7.60;99.90
37528;DHT22;23372;52.050;4.810;2023-11-18T10:33:27;7.60;99.90
37528;DHT22;23372;52.050;4.810;2023-11-18T10:35:56;7.60;99.90
37528;DHT22;23372;52.050;4.810;2023-11-18T10:38:23;7.60;99.90
37528;DHT22;23372;52.050;4.810;2023-11-18T10:40:55;7.70;99.90
37528;DHT22;23372;52.050;4.810;2023-11-18T10:43:22;7.70;99.90
37528;DHT22;23372;52.050;4.810;2023-11-18T10:46:04;7.60;99.90
37528;DHT22;23372;52.050;4.810;2023-11-18T10:48:30;7.70;99.90
37528;DHT22;23372;52.050;4.810;2023-11-18T10:50:56;7.70;99.90
37528;DHT22;23372;52.050;4.810;2023-11-18T10:53:24;7.70;99.90
37528;DHT22;23372;52.050;4.810;2023-11-18T10:55:52;7.70;99.90
37528;DHT22;23372;52.050;4.810;2023-11-18T10:58:17;7.70;99.90
37528;DHT22;23372;52.050;4.810;2023-11-18T11:00:48;7.80;99.90
37528;DHT22;23372;52.050;4.810;2023-11-18T11:03:17;7.80;99.90
37528;DHT22;23372;52.050;4.810;2023-11-18T11:05:44;7.80;99.90
37528;DHT22;23372;52.050;4.810;2023-11-18T11:08:13;7.80;99.90
37528;DHT22;23372;52.050;4.810;2023-11-18T11:10:46;7.80;99.90
37528;DHT22;23372;52.050;4.810;2023-11-18T11:13:14;7.90;99.90
37528;DHT22;23372;52.050;4.810;2023-11-18T11:15:43;7.80;99.90
37528;DHT22;23372;52.050;4.810;2023-11-18T11:18:19;7.90;99.90
37528;DHT22;23372;52.050;4.810;2023-11-18T11:31:38;8.10;99.90
37528;DHT22;23372;52.050;4.810;2023-11-18T11:34:06;8.20;99.90
37528;DHT22;23372;52.050;4.810;2023-11-18T11:36:46;8.10;99.90
37528;DHT22;23372;52.050;4.810;2023-11-18T11:39:13;8.20;99.90
37528;DHT22;23372;52.050;4.810;2023-11-18T11:41:45;8.20;99.90
37528;DHT22;23372;52.050;4.810;2023-11-18T11:44:14;8.30;99.90
37528;DHT22;23372;52.050;4.810;2023-11-18T11:46:40;8.30;99.90
37528;DHT22;23372;52.050;4.810;2023-11-18T11:49:09;8.30;99.90
37528;DHT22;23372;52.050;4.810;2023-11-18T11:51:56;8.30;99.90
37528;DHT22;23372;52.050;4.810;2023-11-18T11:54:37;8.30;99.90
37528;DHT22;23372;52.050;4.810;2023-11-18T11:57:05;8.30;99.90
37528;DHT22;23372;52.050;4.810;2023-11-18T11:59:56;8.40;99.90
37528;DHT22;23372;52.050;4.810;2023-11-18T12:02:30;8.30;99.90
37528;DHT22;23372;52.050;4.810;2023-11-18T12:04:58;8.40;99.90
37528;DHT22;23372;52.050;4.810;2023-11-18T12:07:27;8.40;99.90
37528;DHT22;23372;52.050;4.810;2023-11-18T12:10:00;8.40;99.90
37528;DHT22;23372;52.050;4.810;2023-11-18T12:12:27;8.40;99.90
37528;DHT22;23372;52.050;4.810;2023-11-18T12:17:22;8.40;99.90
37528;DHT22;23372;52.050;4.810;2023-11-18T12:19:48;8.40;99.90
37528;DHT22;23372;52.050;4.810;2023-11-18T12:22:23;8.40;99.90
37528;DHT22;23372;52.050;4.810;2023-11-18T12:27:45;8.40;99.90
37528;DHT22;23372;52.050;4.810;2023-11-18T12:32:59;8.40;99.90
37528;DHT22;23372;52.050;4.810;2023-11-18T12:41:38;8.40;99.90
37528;DHT22;23372;52.050;4.810;2023-11-18T12:46:53;8.50;99.90
37528;DHT22;23372;52.050;4.810;2023-11-18T12:49:21;8.40;99.90
37528;DHT22;23372;52.050;4.810;2023-11-18T12:51:50;8.50;99.90
37528;DHT22;23372;52.050;4.810;2023-11-18T12:54:18;8.50;99.90
37528;DHT22;23372;52.050;4.810;2023-11-18T12:56:44;8.50;99.90
37528;DHT22;23372;52.050;4.810;2023-11-18T12:59:16;8.50;99.90
37528;DHT22;23372;52.050;4.810;2023-11-18T13:01:52;8.50;99.90
37528;DHT22;23372;52.050;4.810;2023-11-18T13:04:28;8.50;99.90
37528;DHT22;23372;52.050;4.810;2023-11-18T13:06:54;8.50;99.90
37528;DHT22;23372;52.050;4.810;2023-11-18T13:09:23;8.50;99.90
37528;DHT22;23372;52.050;4.810;2023-11-18T13:11:56;8.50;99.90
37528;DHT22;23372;52.050;4.810;2023-11-18T13:14:27;8.50;99.90
37528;DHT22;23372;52.050;4.810;2023-11-18T13:16:53;8.50;99.90
37528;DHT22;23372;52.050;4.810;2023-11-18T13:19:26;8.50;99.90
37528;DHT22;23372;52.050;4.810;2023-11-18T13:21:56;8.50;99.90
37528;DHT22;23372;52.050;4.810;2023-11-18T13:24:22;8.50;99.90
37528;DHT22;23372;52.050;4.810;2023-11-18T13:26:48;8.50;99.90
37528;DHT22;23372;52.050;4.810;2023-11-18T13:29:14;8.50;99.90
37528;DHT22;23372;52.050;4.810;2023-11-18T13:31:39;8.60;99.90
37528;DHT22;23372;52.050;4.810;2023-11-18T13:34:06;8.60;99.90
37528;DHT22;23372;52.050;4.810;2023-11-18T13:36:32;8.60;99.90
37528;DHT22;23372;52.050;4.810;2023-11-18T13:38:58;8.60;99.90
37528;DHT22;23372;52.050;4.810;2023-11-18T13:41:33;8.60;99.90
37528;DHT22;23372;52.050;4.810;2023-11-18T13:43:59;8.60;99.90
37528;DHT22;23372;52.050;4.810;2023-11-18T13:46:26;8.60;99.90
37528;DHT22;23372;52.050;4.810;2023-11-18T13:48:54;8.60;99.90
37528;DHT22;23372;52.050;4.810;2023-11-18T13:51:20;8.60;99.90
37528;DHT22;23372;52.050;4.810;2023-11-18T13:53:47;8.60;99.90
37528;DHT22;23372;52.050;4.810;2023-11-18T13:56:13;8.60;99.90
37528;DHT22;23372;52.050;4.810;2023-11-18T13:58:39;8.60;99.90
37528;DHT22;23372;52.050;4.810;2023-11-18T14:01:07;8.60;99.90
37528;DHT22;23372;52.050;4.810;2023-11-18T14:03:36;8.60;99.90
37528;DHT22;23372;52.050;4.810;2023-11-18T14:06:05;8.70;99.90
37528;DHT22;23372;52.050;4.810;2023-11-18T14:08:30;8.70;99.90
37528;DHT22;23372;52.050;4.810;2023-11-18T14:10:56;8.70;99.90
37528;DHT22;23372;52.050;4.810;2023-11-18T14:13:22;8.70;99.90
37528;DHT22;23372;52.050;4.810;2023-11-18T14:15:48;8.70;99.90
37528;DHT22;23372;52.050;4.810;2023-11-18T14:18:14;8.60;99.90
37528;DHT22;23372;52.050;4.810;2023-11-18T14:20:40;8.70;99.90
37528;DHT22;23372;52.050;4.810;2023-11-18T14:23:06;8.70;99.90
37528;DHT22;23372;52.050;4.810;2023-11-18T14:25:32;8.70;99.90
37528;DHT22;23372;52.050;4.810;2023-11-18T14:27:58;8.70;99.90
37528;DHT22;23372;52.050;4.810;2023-11-18T14:30:24;8.70;99.90
37528;DHT22;23372;52.050;4.810;2023-11-18T14:32:52;8.70;99.90
37528;DHT22;23372;52.050;4.810;2023-11-18T14:35:18;8.80;99.90
37528;DHT22;23372;52.050;4.810;2023-11-18T14:37:44;8.80;99.90
37528;DHT22;23372;52.050;4.810;2023-11-18T14:40:14;8.80;99.90
37528;DHT22;23372;52.050;4.810;2023-11-18T14:42:43;8.80;99.90
37528;DHT22;23372;52.050;4.810;2023-11-18T14:45:12;8.80;99.90
37528;DHT22;23372;52.050;4.810;2023-11-18T14:47:38;8.80;99.90
37528;DHT22;23372;52.050;4.810;2023-11-18T14:50:05;8.80;99.90
37528;DHT22;23372;52.050;4.810;2023-11-18T14:52:37;8.80;99.90
37528;DHT22;23372;52.050;4.810;2023-11-18T14:55:05;8.80;99.90
37528;DHT22;23372;52.050;4.810;2023-11-18T14:57:35;8.80;99.90
37528;DHT22;23372;52.050;4.810;2023-11-18T15:00:00;8.90;99.90
37528;DHT22;23372;52.050;4.810;2023-11-18T15:02:26;8.80;99.90
37528;DHT22;23372;52.050;4.810;2023-11-18T15:04:52;8.90;99.90
37528;DHT22;23372;52.050;4.810;2023-11-18T15:07:17;8.90;99.90
37528;DHT22;23372;52.050;4.810;2023-11-18T15:09:43;8.90;99.90
37528;DHT22;23372;52.050;4.810;2023-11-18T15:12:09;8.90;99.90
37528;DHT22;23372;52.050;4.810;2023-11-18T15:14:34;8.90;99.90
37528;DHT22;23372;52.050;4.810;2023-11-18T15:17:00;8.90;99.90
37528;DHT22;23372;52.050;4.810;2023-11-18T15:19:26;8.90;99.90
37528;DHT22;23372;52.050;4.810;2023-11-18T15:21:52;9.00;99.90
37528;DHT22;23372;52.050;4.810;2023-11-18T15:24:18;9.00;99.90
37528;DHT22;23372;52.050;4.810;2023-11-18T15:26:43;9.00;99.90
37528;DHT22;23372;52.050;4.810;2023-11-18T15:29:09;9.00;99.90
37528;DHT22;23372;52.050;4.810;2023-11-18T15:31:40;9.00;99.90
37528;DHT22;23372;52.050;4.810;2023-11-18T15:34:06;9.00;99.90
37528;DHT22;23372;52.050;4.810;2023-11-18T15:36:31;9.00;99.90
37528;DHT22;23372;52.050;4.810;2023-11-18T15:38:57;9.10;99.90
37528;DHT22;23372;52.050;4.810;2023-11-18T15:41:29;9.10;99.90
37528;DHT22;23372;52.050;4.810;2023-11-18T15:43:55;9.20;99.90
37528;DHT22;23372;52.050;4.810;2023-11-18T15:46:20;9.20;99.90
37528;DHT22;23372;52.050;4.810;2023-11-18T15:48:46;9.10;99.90
37528;DHT22;23372;52.050;4.810;2023-11-18T15:51:12;9.10;99.90
37528;DHT22;23372;52.050;4.810;2023-11-18T15:53:41;9.20;99.90
37528;DHT22;23372;52.050;4.810;2023-11-18T15:56:07;9.20;99.90
37528;DHT22;23372;52.050;4.810;2023-11-18T15:58:34;9.20;99.90
37528;DHT22;23372;52.050;4.810;2023-11-18T16:01:01;9.20;99.90
37528;DHT22;23372;52.050;4.810;2023-11-18T16:03:27;9.30;99.90
37528;DHT22;23372;52.050;4.810;2023-11-18T16:05:53;9.20;99.90
37528;DHT22;23372;52.050;4.810;2023-11-18T16:08:20;9.30;99.90
37528;DHT22;23372;52.050;4.810;2023-11-18T16:10:46;9.20;99.90
37528;DHT22;23372;52.050;4.810;2023-11-18T16:13:11;9.30;99.90
37528;DHT22;23372;52.050;4.810;2023-11-18T16:15:37;9.30;99.90
37528;DHT22;23372;52.050;4.810;2023-11-18T16:18:03;9.30;99.90